Time;durP1;ratioP1;P1;durP2;ratioP2;P2;SDS_P1;SDS_P2;PMS_P1;PMS_P2;Temp;Humidity;BMP_temperature;BMP_pressure;BME280_temperature;BME280_humidity;BME280_pressure;Samples;Min_cycle;Max_cycle;Signal;HPM_P1;HPM_P2
2022/04/15 00:00:29;;;;;;;27.00;14.70;;;;;;;14.80;42.73;99112.80;232810;1223;138926;-60
2022/04/15 00:05:45;;;;;;;30.30;15.30;;;;;;;14.84;42.39;99113.06;232518;1223;138713;-61
2022/04/15 00:10:57;;;;;;;30.70;17.00;;;;;;;14.88;42.17;99115.39;232703;1222;139671;-62
2022/04/15 00:16:12;;;;;;;30.70;18.90;;;;;;;14.87;42.25;99113.33;232729;1222;138662;-61
2022/04/15 00:21:31;;;;;;;33.70;18.50;;;;;;;14.80;42.33;99113.02;232548;1223;138533;-62
2022/04/15 00:26:50;;;;;;;29.30;16.30;;;;;;;14.73;42.33;99112.10;232393;1223;139021;-62
2022/04/15 00:31:59;;;;;;;26.30;13.20;;;;;;;14.69;41.99;99106.02;232660;1223;139144;-59
2022/04/15 00:37:10;;;;;;;22.50;12.90;;;;;;;14.72;41.64;99106.47;232390;1223;138468;-61
2022/04/15 00:42:15;;;;;;;22.60;13.00;;;;;;;14.75;41.37;99100.34;232187;1223;138971;-62
2022/04/15 00:47:43;;;;;;;30.80;14.60;;;;;;;14.79;41.09;99104.29;232759;1221;138700;-60
2022/04/15 00:52:50;;;;;;;29.10;15.60;;;;;;;14.81;41.18;99096.65;232459;1222;138682;-60
2022/04/15 00:58:00;;;;;;;26.40;15.80;;;;;;;14.82;41.14;99102.30;232568;1222;138685;-61
2022/04/15 01:03:21;;;;;;;32.00;15.90;;;;;;;14.79;41.24;99101.77;232356;1222;139686;-59
2022/04/15 01:08:34;;;;;;;30.40;16.00;;;;;;;14.73;41.49;99101.20;231552;1222;258210;-59
2022/04/15 01:13:45;;;;;;;34.70;14.60;;;;;;;14.68;41.39;99096.09;232551;1222;140119;-58
2022/04/15 01:18:54;;;;;;;24.00;13.90;;;;;;;14.65;41.35;99091.51;232508;1223;140468;-59
2022/04/15 01:24:04;;;;;;;29.20;12.70;;;;;;;14.58;41.27;99091.84;232963;1222;138874;-61
2022/04/15 01:29:37;;;;;;;22.40;11.90;;;;;;;14.52;41.29;99089.07;232644;1222;140023;-58
2022/04/15 01:35:01;;;;;;;18.80;10.50;;;;;;;14.45;41.12;99081.02;232799;1223;138607;-59
2022/04/15 01:40:11;;;;;;;21.70;10.90;;;;;;;14.43;41.21;99079.05;232648;1222;139248;-61
2022/04/15 01:45:23;;;;;;;23.30;10.60;;;;;;;14.46;41.42;99080.25;232774;1222;139533;-59
2022/04/15 01:50:38;;;;;;;17.00;10.20;;;;;;;14.46;41.45;99079.16;232490;1222;138406;-59
2022/04/15 01:56:06;;;;;;;19.90;9.80;;;;;;;14.43;41.72;99074.27;232381;1222;138643;-60
2022/04/15 02:01:13;;;;;;;19.00;10.60;;;;;;;14.47;41.78;99076.09;232235;1223;139197;-61
2022/04/15 02:06:29;;;;;;;19.40;10.30;;;;;;;14.49;42.04;99081.63;232361;1223;139804;-63
2022/04/15 02:11:35;;;;;;;24.10;11.00;;;;;;;14.48;42.18;99085.29;232299;1222;139095;-63
2022/04/15 02:16:44;;;;;;;20.40;11.30;;;;;;;14.42;42.28;99086.11;232506;1222;138789;-65
2022/04/15 02:21:59;;;;;;;24.80;10.90;;;;;;;14.40;42.44;99098.70;232301;1223;139669;-61
2022/04/15 02:27:07;;;;;;;22.00;11.00;;;;;;;14.30;42.43;99106.86;232094;1222;139354;-59
2022/04/15 02:32:11;;;;;;;17.80;11.00;;;;;;;14.18;42.57;99096.11;232526;1223;139732;-61
2022/04/15 02:37:21;;;;;;;19.20;11.10;;;;;;;14.15;42.86;99082.77;232482;1222;140083;-62
2022/04/15 02:42:43;;;;;;;23.00;11.30;;;;;;;14.14;43.20;99080.04;232602;1223;138507;-60
2022/04/15 02:47:52;;;;;;;22.70;11.40;;;;;;;14.14;43.18;99085.77;232674;1223;138630;-59
2022/04/15 02:53:05;;;;;;;20.70;11.30;;;;;;;14.10;43.50;99091.59;232507;1223;138384;-59
2022/04/15 02:58:12;;;;;;;28.30;11.90;;;;;;;14.07;43.68;99095.73;232508;1223;139461;-59
2022/04/15 03:03:23;;;;;;;21.80;12.20;;;;;;;14.00;43.63;99096.06;231952;1222;138572;-60
2022/04/15 03:08:31;;;;;;;21.00;11.50;;;;;;;13.97;44.12;99106.48;232488;1223;139101;-60
2022/04/15 03:13:40;;;;;;;21.80;12.60;;;;;;;13.91;44.52;99101.41;232607;1223;139305;-60
2022/04/15 03:18:45;;;;;;;38.10;24.30;;;;;;;13.92;44.52;99115.42;232670;1222;138496;-60
2022/04/15 03:23:52;;;;;;;28.10;13.70;;;;;;;13.93;44.97;99119.44;232587;1221;138832;-62
2022/04/15 03:29:04;;;;;;;26.80;13.40;;;;;;;13.98;45.35;99113.19;232491;1222;138642;-61
2022/04/15 03:34:15;;;;;;;24.30;13.20;;;;;;;13.92;45.19;99111.81;232617;1223;138710;-61
2022/04/15 03:39:27;;;;;;;43.00;27.00;;;;;;;13.86;45.51;99113.90;232834;1221;139431;-62
2022/04/15 03:44:35;;;;;;;31.10;15.30;;;;;;;13.81;45.86;99122.33;232640;1222;138603;-60
2022/04/15 03:49:40;;;;;;;28.70;15.00;;;;;;;13.82;46.02;99133.66;231488;1222;138565;-59
2022/04/15 03:54:47;;;;;;;30.30;14.80;;;;;;;13.78;46.04;99130.75;231674;1223;138719;-62
2022/04/15 04:00:00;;;;;;;26.00;14.30;;;;;;;13.72;46.13;99130.58;232678;1222;139319;-62
2022/04/15 04:05:10;;;;;;;27.50;14.70;;;;;;;13.73;46.30;99145.73;232390;1222;139119;-61
2022/04/15 04:10:17;;;;;;;30.10;14.90;;;;;;;13.69;46.59;99151.73;232210;1222;138470;-62
2022/04/15 04:15:35;;;;;;;58.20;34.60;;;;;;;13.64;46.50;99147.77;232610;1222;138566;-61
2022/04/15 04:20:41;;;;;;;31.90;18.00;;;;;;;13.68;46.90;99164.40;232616;1222;138475;-61
2022/04/15 04:25:51;;;;;;;30.40;17.60;;;;;;;13.71;47.17;99181.52;232581;1222;138464;-59
2022/04/15 04:30:58;;;;;;;32.30;17.40;;;;;;;13.69;47.23;99184.13;231925;1223;139229;-62
2022/04/15 04:36:09;;;;;;;30.20;18.70;;;;;;;13.64;47.30;99192.87;232732;1223;139481;-61
2022/04/15 04:41:22;;;;;;;33.50;19.70;;;;;;;13.62;47.75;99193.61;232271;1222;138742;-61
2022/04/15 04:46:37;;;;;;;36.10;19.70;;;;;;;13.62;47.89;99199.63;231633;1222;139768;-61
2022/04/15 04:51:46;;;;;;;33.40;19.10;;;;;;;13.61;48.15;99198.77;232592;1222;138501;-61
2022/04/15 04:56:57;;;;;;;34.50;18.70;;;;;;;13.63;48.48;99202.02;232373;1221;139962;-61
2022/04/15 05:02:12;;;;;;;34.60;19.90;;;;;;;13.66;48.80;99207.73;232347;1222;138997;-61
2022/04/15 05:07:20;;;;;;;32.50;19.50;;;;;;;13.68;48.63;99205.08;232283;1220;139303;-62
2022/04/15 05:12:32;;;;;;;31.30;20.20;;;;;;;13.72;48.85;99205.52;232529;1222;138855;-60
2022/04/15 05:17:41;;;;;;;31.90;19.80;;;;;;;13.75;49.06;99205.65;232259;1221;138450;-60
2022/04/15 05:22:52;;;;;;;35.30;19.60;;;;;;;13.77;49.31;99215.65;232498;1221;138660;-61
2022/04/15 05:28:02;;;;;;;29.80;19.90;;;;;;;13.79;49.42;99212.31;232216;1222;139569;-61
2022/04/15 05:33:08;;;;;;;32.90;19.00;;;;;;;13.80;49.62;99218.86;232362;1223;138844;-61
2022/04/15 05:38:19;;;;;;;32.80;19.70;;;;;;;13.76;50.04;99235.35;232396;1222;139040;-60
2022/04/15 05:43:26;;;;;;;35.10;20.90;;;;;;;13.77;50.39;99251.90;232573;1222;138727;-61
2022/04/15 05:48:44;;;;;;;31.30;19.40;;;;;;;13.72;50.74;99250.58;232622;1222;138924;-61
2022/04/15 05:53:52;;;;;;;29.70;17.80;;;;;;;13.71;51.24;99256.19;232608;1222;138291;-61
2022/04/15 05:58:56;;;;;;;28.30;19.80;;;;;;;13.67;51.45;99254.20;232631;1222;139205;-60
2022/04/15 06:04:01;;;;;;;29.60;19.20;;;;;;;13.66;51.88;99246.80;232470;1222;139079;-61
2022/04/15 06:09:05;;;;;;;30.00;20.50;;;;;;;13.63;52.37;99235.94;232748;1220;138610;-62
2022/04/15 06:14:17;;;;;;;32.00;20.50;;;;;;;13.58;53.08;99249.84;232233;1222;139636;-62
2022/04/15 06:19:53;;;;;;;31.40;20.40;;;;;;;13.53;53.49;99257.91;232439;1222;138359;-62
2022/04/15 06:24:58;;;;;;;31.80;21.80;;;;;;;13.48;53.54;99251.96;232567;1221;138683;-59
2022/04/15 06:30:08;;;;;;;30.60;20.50;;;;;;;13.47;53.86;99253.83;232831;1222;139783;-61
2022/04/15 06:35:19;;;;;;;;;;;;;;;13.48;54.15;99263.39;232579;1222;139215;-62
2022/04/15 06:40:28;;;;;;;30.30;18.80;;;;;;;13.43;54.44;99273.19;232267;1222;125000;-61
2022/04/15 06:45:42;;;;;;;29.50;20.30;;;;;;;13.35;54.83;99281.39;231517;1221;139542;-58
2022/04/15 06:50:54;;;;;;;28.30;18.70;;;;;;;13.30;55.51;99281.41;231927;1221;138598;-62
2022/04/15 06:56:01;;;;;;;31.80;18.40;;;;;;;13.30;55.61;99281.70;232841;1222;139500;-60
2022/04/15 07:01:23;;;;;;;29.20;19.60;;;;;;;13.30;56.13;99283.90;232823;1221;139193;-62
2022/04/15 07:06:35;;;;;;;27.30;20.00;;;;;;;13.35;56.33;99284.77;232918;1221;139169;-60
2022/04/15 07:11:43;;;;;;;29.50;20.90;;;;;;;13.35;56.74;99298.67;232436;1222;138972;-63
2022/04/15 07:16:52;;;;;;;30.40;21.10;;;;;;;13.37;56.98;99291.62;232863;1221;138896;-63
2022/04/15 07:22:05;;;;;;;32.90;20.50;;;;;;;13.33;57.41;99290.11;232911;1221;139212;-63
2022/04/15 07:27:16;;;;;;;28.10;20.80;;;;;;;13.31;57.29;99288.98;232685;1221;138626;-61
2022/04/15 07:32:27;;;;;;;25.30;19.40;;;;;;;13.31;57.48;99286.30;232740;1221;138659;-62
2022/04/15 07:37:37;;;;;;;31.60;21.60;;;;;;;13.27;57.68;99290.87;232446;1222;138565;-62
2022/04/15 07:42:41;;;;;;;30.70;21.00;;;;;;;13.25;57.91;99294.58;232917;1220;138826;-61
2022/04/15 07:47:47;;;;;;;33.00;20.80;;;;;;;13.30;58.12;99310.95;232536;1222;140019;-62
2022/04/15 07:52:57;;;;;;;40.40;26.10;;;;;;;13.38;58.29;99313.60;232781;1221;139502;-62
2022/04/15 07:58:08;;;;;;;30.20;21.90;;;;;;;13.46;58.72;99319.12;232792;1222;138680;-62
2022/04/15 08:03:22;;;;;;;29.70;22.30;;;;;;;13.49;58.63;99301.11;232776;1221;139575;-61
2022/04/15 08:08:32;;;;;;;33.50;22.40;;;;;;;13.54;58.76;99311.66;232679;1221;138682;-62
2022/04/15 08:13:41;;;;;;;32.20;21.50;;;;;;;13.55;58.99;99311.02;232731;1220;138968;-61
2022/04/15 08:18:44;;;;;;;32.00;22.20;;;;;;;13.52;59.14;99313.42;232937;1221;139656;-62
2022/04/15 08:23:51;;;;;;;34.30;25.00;;;;;;;13.45;59.02;99317.39;232692;1221;139426;-62
2022/04/15 08:29:05;;;;;;;32.50;21.60;;;;;;;13.39;59.51;99319.61;232715;1221;139176;-61
2022/04/15 08:34:15;;;;;;;32.30;21.60;;;;;;;13.43;59.51;99321.33;232546;1222;139788;-59
2022/04/15 08:39:29;;;;;;;34.80;23.40;;;;;;;13.46;59.84;99321.97;232788;1221;138942;-61
2022/04/15 08:44:34;;;;;;;38.30;27.20;;;;;;;13.53;60.10;99317.41;232640;1221;138792;-62
2022/04/15 08:49:45;;;;;;;41.80;26.20;;;;;;;13.72;59.70;99323.39;232502;1222;139264;-62
2022/04/15 08:54:54;;;;;;;33.60;26.20;;;;;;;13.72;59.86;99319.10;232719;1222;138771;-61
2022/04/15 09:00:05;;;;;;;36.60;26.40;;;;;;;13.69;59.71;99324.27;232711;1221;138211;-61
2022/04/15 09:05:21;;;;;;;35.90;24.70;;;;;;;13.62;59.98;99327.32;232782;1221;139701;-62
2022/04/15 09:10:33;;;;;;;74.40;50.70;;;;;;;13.58;60.38;99326.15;232679;1221;139697;-62
2022/04/15 09:15:41;;;;;;;29.90;21.90;;;;;;;13.58;60.65;99321.84;232627;1221;140040;-63
2022/04/15 09:20:51;;;;;;;31.70;23.50;;;;;;;13.69;60.79;99321.29;232709;1222;139624;-62
2022/04/15 09:26:02;;;;;;;31.90;24.20;;;;;;;13.71;60.88;99315.20;232478;1220;140191;-62
2022/04/15 09:31:13;;;;;;;35.10;24.60;;;;;;;13.74;61.01;99314.86;232675;1221;139907;-63
2022/04/15 09:36:35;;;;;;;31.50;23.30;;;;;;;13.72;61.22;99307.20;232776;1221;138708;-62
2022/04/15 09:41:54;;;;;;;30.10;22.30;;;;;;;13.72;61.40;99306.43;232688;1220;139318;-61
2022/04/15 09:47:04;;;;;;;29.60;20.80;;;;;;;13.70;61.54;99298.88;232895;1220;138973;-61
2022/04/15 09:52:13;;;;;;;24.90;19.60;;;;;;;13.79;62.03;99299.88;232386;1221;139727;-60
2022/04/15 09:57:27;;;;;;;26.20;20.60;;;;;;;13.91;62.20;99297.61;232812;1220;139234;-62
2022/04/15 10:02:39;;;;;;;25.10;20.20;;;;;;;13.97;62.08;99296.81;232840;1220;138681;-61
2022/04/15 10:07:51;;;;;;;;;;;;;;;14.03;62.17;99299.79;232817;1220;139305;-61
2022/04/15 10:13:03;;;;;;;36.40;25.40;;;;;;;14.00;62.38;99296.41;232998;1220;125212;-60
2022/04/15 10:18:13;;;;;;;;;;;;;;;13.98;62.13;99307.81;232718;1220;138905;-61
2022/04/15 10:23:24;;;;;;;21.70;17.50;;;;;;;13.82;62.08;99309.98;232921;1220;125163;-60
2022/04/15 10:28:45;;;;;;;22.20;17.90;;;;;;;13.73;62.45;99300.86;232792;1220;138988;-58
2022/04/15 10:34:17;;;;;;;19.30;16.20;;;;;;;13.77;62.63;99301.45;233045;1219;139952;-60
2022/04/15 10:39:30;;;;;;;24.10;18.40;;;;;;;13.83;63.02;99300.13;232727;1220;139376;-58
2022/04/15 10:44:44;;;;;;;25.30;19.60;;;;;;;13.94;63.11;99300.02;232938;1220;138580;-59
2022/04/15 10:50:07;;;;;;;19.90;16.20;;;;;;;14.10;63.22;99295.20;232937;1220;140900;-60
2022/04/15 10:55:17;;;;;;;15.60;12.90;;;;;;;14.11;63.21;99291.90;232899;1219;138960;-60
2022/04/15 11:06:06;;;;;;;16.40;12.70;;;;;;;14.15;63.29;99286.25;233002;1220;140658;-62
2022/04/15 11:11:40;;;;;;;12.30;10.10;;;;;;;14.31;63.29;99287.55;232991;1220;139651;-59
2022/04/15 11:16:50;;;;;;;14.10;10.40;;;;;;;14.40;63.20;99285.25;232848;1220;138824;-60
2022/04/15 11:21:57;;;;;;;13.70;10.90;;;;;;;14.49;63.15;99281.61;233032;1220;139387;-59
2022/04/15 11:27:10;;;;;;;13.20;11.30;;;;;;;14.64;63.26;99276.56;233080;1220;138590;-60
2022/04/15 11:32:24;;;;;;;14.40;10.30;;;;;;;14.81;63.15;99273.30;232931;1220;138720;-61
2022/04/15 11:37:31;;;;;;;11.30;8.70;;;;;;;14.95;63.00;99271.94;232970;1219;140194;-61
2022/04/15 11:42:55;;;;;;;10.10;8.80;;;;;;;15.06;62.86;99272.35;233116;1220;139057;-61
2022/04/15 11:48:26;;;;;;;11.70;9.00;;;;;;;15.10;62.47;99267.73;232865;1220;139576;-60
2022/04/15 11:53:41;;;;;;;11.80;9.30;;;;;;;15.09;62.20;99267.75;232719;1219;140038;-60
2022/04/15 11:58:50;;;;;;;12.10;8.70;;;;;;;15.02;62.06;99261.55;232949;1220;139568;-59
2022/04/15 12:03:54;;;;;;;11.00;9.00;;;;;;;15.01;62.17;99262.33;232935;1220;138742;-59
2022/04/15 12:09:03;;;;;;;10.00;7.90;;;;;;;14.98;62.06;99255.09;232967;1220;161477;-59
2022/04/15 12:14:36;;;;;;;11.40;7.50;;;;;;;15.00;62.00;99254.55;232734;1220;139543;-59
2022/04/15 12:19:41;;;;;;;10.60;8.90;;;;;;;15.10;62.09;99247.66;232806;1220;140070;-59
2022/04/15 12:24:44;;;;;;;14.30;12.30;;;;;;;15.20;62.09;99247.29;232963;1220;138796;-60
2022/04/15 12:29:51;;;;;;;18.00;14.40;;;;;;;15.23;62.00;99234.20;232818;1220;138891;-61
2022/04/15 12:34:55;;;;;;;22.90;16.10;;;;;;;15.30;61.90;99222.36;232843;1220;138940;-58
2022/04/15 12:39:58;;;;;;;18.60;14.90;;;;;;;15.39;62.02;99219.67;232795;1220;141000;-59
2022/04/15 12:45:03;;;;;;;17.60;12.80;;;;;;;15.46;62.11;99212.67;232877;1220;139210;-59
2022/04/15 12:50:24;;;;;;;14.80;12.60;;;;;;;15.60;61.88;99208.69;232871;1220;140638;-60
2022/04/15 12:55:34;;;;;;;14.70;11.20;;;;;;;15.71;61.62;99210.41;232810;1220;140008;-59
2022/04/15 13:00:37;;;;;;;17.50;10.40;;;;;;;15.86;61.51;99207.92;232995;1220;138774;-60
2022/04/15 13:05:40;;;;;;;13.00;8.80;;;;;;;16.24;61.67;99199.97;232756;1220;139473;-59
2022/04/15 13:10:45;;;;;;;19.30;11.70;;;;;;;16.64;60.79;99197.34;232746;1220;138867;-60
2022/04/15 13:16:08;;;;;;;10.00;8.10;;;;;;;16.65;59.86;99191.30;232680;1220;139253;-61
2022/04/15 13:21:11;;;;;;;11.40;9.00;;;;;;;16.61;59.65;99184.14;232847;1220;139452;-60
2022/04/15 13:26:14;;;;;;;8.10;6.80;;;;;;;16.83;59.59;99171.71;232886;1220;139002;-60
2022/04/15 13:31:18;;;;;;;8.90;7.50;;;;;;;16.82;58.62;99168.94;232784;1220;138771;-60
2022/04/15 13:36:21;;;;;;;11.70;8.00;;;;;;;16.78;58.37;99172.27;232889;1220;138578;-60
2022/04/15 13:41:26;;;;;;;4.40;2.90;;;;;;;16.81;57.87;99201.66;232870;1221;138899;-60
2022/04/15 13:46:29;;;;;;;9.10;3.30;;;;;;;16.54;57.11;99198.76;232903;1220;138710;-59
2022/04/15 13:51:33;;;;;;;8.30;3.20;;;;;;;16.04;56.71;99191.41;232841;1220;138992;-60
2022/04/15 13:56:39;;;;;;;8.00;3.20;;;;;;;15.50;56.74;99194.31;232900;1220;139613;-59
2022/04/15 14:01:44;;;;;;;9.80;3.60;;;;;;;15.03;57.37;99187.11;233349;1220;139408;-60
2022/04/15 14:06:49;;;;;;;8.00;4.10;;;;;;;14.74;58.24;99191.48;233400;1220;139506;-59
2022/04/15 14:11:52;;;;;;;7.20;4.80;;;;;;;14.57;58.90;99184.59;233400;1220;138914;-60
2022/04/15 14:16:55;;;;;;;8.90;3.90;;;;;;;14.59;59.83;99182.48;233361;1220;139601;-59
2022/04/15 14:21:59;;;;;;;6.50;3.80;;;;;;;15.01;60.75;99183.15;233390;1220;139290;-59
2022/04/15 14:27:02;;;;;;;36.00;20.70;;;;;;;15.31;61.00;99177.38;233396;1218;138982;-58
2022/04/15 14:32:06;;;;;;;14.80;10.70;;;;;;;16.21;61.57;99188.69;233385;1220;138591;-60
2022/04/15 14:37:10;;;;;;;15.00;9.10;;;;;;;16.87;60.96;99188.37;233147;1220;139019;-60
2022/04/15 14:42:15;;;;;;;7.30;3.80;;;;;;;17.31;60.11;99178.48;233326;1220;139088;-60
2022/04/15 14:47:18;;;;;;;6.70;3.90;;;;;;;17.29;58.75;99178.90;233331;1220;138828;-60
2022/04/15 14:52:21;;;;;;;7.60;4.20;;;;;;;16.92;57.90;99176.35;233207;1220;138711;-59
2022/04/15 14:57:26;;;;;;;6.20;4.30;;;;;;;16.50;58.28;99174.64;233329;1220;138296;-58
2022/04/15 15:02:29;;;;;;;7.50;4.70;;;;;;;16.15;58.53;99182.30;233388;1218;138748;-59
2022/04/15 15:07:32;;;;;;;3.70;2.40;;;;;;;15.80;58.48;99220.04;233342;1220;139568;-59
2022/04/15 15:12:35;;;;;;;4.60;2.80;;;;;;;15.53;57.69;99232.13;233542;1220;139468;-57
2022/04/15 15:17:38;;;;;;;4.20;2.90;;;;;;;15.27;57.60;99231.54;233351;1220;138442;-60
2022/04/15 15:22:41;;;;;;;3.50;3.00;;;;;;;15.09;57.71;99235.23;233369;1220;138822;-61
2022/04/15 15:33:07;;;;;;;5.60;3.30;;;;;;;14.75;57.98;99239.45;233342;1220;138661;-61
2022/04/15 15:38:10;;;;;;;19.80;15.30;;;;;;;14.70;58.14;99242.53;232482;1221;138370;-59
2022/04/15 15:43:13;;;;;;;15.60;9.50;;;;;;;14.66;58.14;99242.83;233503;1220;139068;-61
2022/04/15 15:48:21;;;;;;;6.60;4.10;;;;;;;14.59;58.09;99249.95;233378;1220;138926;-60
2022/04/15 15:53:33;;;;;;;5.90;4.00;;;;;;;14.52;58.24;99245.86;233360;1220;138770;-59
2022/04/15 15:58:36;;;;;;;7.50;4.10;;;;;;;14.41;58.54;99247.70;233416;1220;138407;-58
2022/04/15 16:03:39;;;;;;;6.00;4.30;;;;;;;14.30;58.66;99251.91;233417;1220;138679;-59
2022/04/15 16:08:42;;;;;;;558.00;418.40;;;;;;;14.26;59.23;99255.10;233330;1220;138839;-57
2022/04/15 16:13:46;;;;;;;8.70;6.10;;;;;;;14.38;59.31;99252.80;233263;1220;139971;-60
2022/04/15 16:18:49;;;;;;;8.10;4.60;;;;;;;14.37;58.78;99257.83;233153;1220;139122;-59
2022/04/15 16:23:52;;;;;;;8.40;4.60;;;;;;;14.35;58.54;99263.04;232695;1220;138548;-60
2022/04/15 16:28:55;;;;;;;7.50;4.50;;;;;;;14.29;58.54;99264.70;232781;1220;138824;-60
2022/04/15 16:34:00;;;;;;;8.00;3.90;;;;;;;14.25;58.69;99261.76;232971;1220;138683;-61
2022/04/15 16:39:03;;;;;;;6.70;4.00;;;;;;;14.21;58.46;99269.39;232798;1220;139417;-60
2022/04/15 16:44:08;;;;;;;7.00;4.30;;;;;;;14.13;58.32;99270.52;232768;1220;140491;-57
2022/04/15 16:49:12;;;;;;;7.50;4.40;;;;;;;14.08;58.39;99274.24;232944;1220;139849;-59
2022/04/15 16:54:15;;;;;;;7.00;3.90;;;;;;;14.04;58.29;99272.23;232807;1220;138939;-58
2022/04/15 16:59:18;;;;;;;8.40;4.40;;;;;;;14.01;58.14;99274.77;232762;1220;139418;-58
2022/04/15 17:04:21;;;;;;;6.40;4.00;;;;;;;13.95;57.80;99288.36;232850;1220;139311;-59
2022/04/15 17:09:24;;;;;;;6.40;4.20;;;;;;;13.90;58.05;99293.88;232770;1220;139561;-58
2022/04/15 17:14:28;;;;;;;5.90;3.60;;;;;;;13.85;58.10;99293.60;232795;1220;138809;-59
2022/04/15 17:19:33;;;;;;;5.60;4.00;;;;;;;13.79;58.21;99295.43;232731;1220;138778;-60
2022/04/15 17:24:36;;;;;;;7.90;4.40;;;;;;;13.67;58.32;99298.25;232799;1220;138632;-58
2022/04/15 17:29:39;;;;;;;7.00;4.40;;;;;;;13.54;58.40;99304.28;232819;1220;138674;-57
2022/04/15 17:34:42;;;;;;;7.70;5.10;;;;;;;13.43;59.10;99305.22;232902;1220;138844;-60
2022/04/15 17:39:45;;;;;;;186.70;107.00;;;;;;;13.41;59.22;99315.06;233241;1220;139557;-58
2022/04/15 17:44:48;;;;;;;7.20;5.40;;;;;;;13.41;59.46;99316.95;233307;1218;139209;-61
2022/04/15 17:49:51;;;;;;;7.80;5.80;;;;;;;13.42;59.59;99320.98;232756;1220;138498;-62
2022/04/15 17:54:54;;;;;;;7.80;5.40;;;;;;;13.38;59.85;99319.30;232982;1220;138879;-59
2022/04/15 17:59:57;;;;;;;9.10;5.60;;;;;;;13.33;59.90;99323.96;232826;1220;140677;-56
2022/04/15 18:05:01;;;;;;;9.40;5.70;;;;;;;13.28;59.89;99331.23;232785;1220;138880;-60
2022/04/15 18:10:04;;;;;;;10.20;6.70;;;;;;;13.23;60.28;99335.65;232614;1220;139131;-60
2022/04/15 18:15:08;;;;;;;10.40;6.90;;;;;;;13.18;59.96;99336.23;232654;1220;139014;-60
2022/04/15 18:20:11;;;;;;;11.40;7.50;;;;;;;13.14;60.48;99338.92;232723;1220;139384;-60
2022/04/15 18:25:16;;;;;;;54.40;36.90;;;;;;;13.14;60.75;99342.34;232692;1220;138631;-61
2022/04/15 18:30:19;;;;;;;12.80;9.00;;;;;;;13.27;61.32;99349.50;232778;1219;140145;-62
2022/04/15 18:35:24;;;;;;;12.20;8.00;;;;;;;13.31;60.88;99354.02;233254;1219;139228;-63
2022/04/15 18:40:27;;;;;;;12.10;7.80;;;;;;;13.31;60.66;99356.20;233086;1220;139376;-64
2022/04/15 18:45:31;;;;;;;10.80;7.60;;;;;;;13.23;60.71;99364.70;232834;1220;138788;-63
2022/04/15 18:55:57;;;;;;;11.80;7.10;;;;;;;13.12;60.24;99365.78;232778;1220;138364;-61
2022/04/15 19:01:01;;;;;;;11.40;7.40;;;;;;;13.07;60.04;99358.81;232924;1220;138787;-61
2022/04/15 19:06:04;;;;;;;57.90;42.90;;;;;;;13.01;60.14;99363.15;232809;1220;139744;-60
2022/04/15 19:11:09;;;;;;;74.00;52.40;;;;;;;13.01;60.23;99372.91;232802;1220;138827;-59
2022/04/15 19:16:12;;;;;;;14.90;9.80;;;;;;;13.06;60.13;99381.16;232896;1220;139019;-60
2022/04/15 19:21:16;;;;;;;12.10;8.50;;;;;;;13.02;60.12;99384.80;232799;1220;139425;-60
2022/04/15 19:26:19;;;;;;;10.80;7.70;;;;;;;12.93;59.77;99380.64;232810;1220;140180;-60
2022/04/15 19:31:22;;;;;;;12.10;8.90;;;;;;;12.87;59.85;99380.30;232953;1220;139622;-57
2022/04/15 19:36:26;;;;;;;13.40;9.80;;;;;;;12.89;60.32;99377.82;232732;1220;139338;-58
2022/04/15 19:41:29;;;;;;;11.70;9.30;;;;;;;12.85;59.82;99371.30;232790;1218;138743;-60
2022/04/15 19:46:32;;;;;;;18.30;11.00;;;;;;;12.82;60.22;99370.30;232839;1220;138904;-58
2022/04/15 19:51:35;;;;;;;24.50;16.50;;;;;;;12.79;60.35;99368.87;232785;1220;139110;-59
2022/04/15 20:02:20;;;;;;;15.90;10.80;;;;;;;12.68;60.50;99368.88;232797;1220;138895;-61
2022/04/15 20:07:23;;;;;;;15.70;11.50;;;;;;;12.62;60.35;99362.88;232901;1220;138814;-60
2022/04/15 20:12:26;;;;;;;14.30;11.20;;;;;;;12.53;60.49;99352.27;232766;1220;139550;-60
2022/04/15 20:17:30;;;;;;;16.70;11.50;;;;;;;12.45;60.05;99351.36;232817;1220;139456;-59
2022/04/15 20:22:33;;;;;;;18.20;12.10;;;;;;;12.42;60.42;99355.27;232838;1220;138905;-61
2022/04/15 20:27:36;;;;;;;19.80;12.60;;;;;;;12.40;60.62;99364.48;232752;1220;139411;-56
2022/04/15 20:32:39;;;;;;;16.60;12.10;;;;;;;12.39;60.65;99367.77;232826;1220;139794;-58
2022/04/15 20:37:47;;;;;;;18.40;12.70;;;;;;;12.39;60.28;99368.11;232818;1219;139253;-58
2022/04/15 20:42:52;;;;;;;17.90;12.00;;;;;;;12.33;60.71;99369.00;232876;1220;138940;-59
2022/04/15 20:47:56;;;;;;;22.00;13.70;;;;;;;12.31;60.50;99368.10;232783;1220;139627;-60
2022/04/15 20:52:59;;;;;;;17.20;12.30;;;;;;;12.25;60.25;99373.98;232849;1220;139141;-60
2022/04/15 20:58:02;;;;;;;170.30;133.20;;;;;;;12.19;60.38;99376.13;232838;1220;140839;-60
2022/04/15 21:03:07;;;;;;;29.30;18.10;;;;;;;12.18;60.56;99372.98;232762;1220;140106;-58
2022/04/15 21:08:10;;;;;;;17.80;13.70;;;;;;;12.14;60.58;99367.56;232835;1219;141672;-59
2022/04/15 21:13:14;;;;;;;19.90;12.70;;;;;;;12.06;60.31;99361.12;232951;1220;139143;-58
2022/04/15 21:18:17;;;;;;;17.50;12.00;;;;;;;11.95;60.31;99363.77;232834;1220;139305;-59
2022/04/15 21:23:40;;;;;;;16.50;12.40;;;;;;;11.88;60.49;99365.26;232798;1220;139485;-57
2022/04/15 21:28:43;;;;;;;17.60;12.70;;;;;;;11.85;60.42;99365.13;232755;1220;139175;-58
2022/04/15 21:33:47;;;;;;;14.00;10.70;;;;;;;11.82;60.52;99356.73;232800;1220;140566;-57
2022/04/15 21:38:50;;;;;;;13.70;11.00;;;;;;;11.82;60.51;99358.19;232851;1220;139628;-57
2022/04/15 21:43:55;;;;;;;18.00;11.80;;;;;;;11.79;60.70;99354.45;232807;1220;139196;-59
2022/04/15 21:48:58;;;;;;;17.10;12.60;;;;;;;11.77;60.30;99349.59;232940;1220;139022;-56
2022/04/15 21:54:03;;;;;;;17.70;14.20;;;;;;;11.73;60.38;99348.40;232745;1220;139450;-59
2022/04/15 21:59:06;;;;;;;20.20;15.40;;;;;;;11.70;60.10;99350.70;232763;1220;139009;-58
2022/04/15 22:04:09;;;;;;;22.80;15.60;;;;;;;11.68;60.51;99357.24;232920;1220;139014;-59
2022/04/15 22:09:12;;;;;;;22.20;16.70;;;;;;;11.66;60.60;99358.98;232939;1220;139034;-59
2022/04/15 22:14:20;;;;;;;22.90;17.50;;;;;;;11.64;60.89;99356.77;232551;1220;140730;-58
2022/04/15 22:19:24;;;;;;;22.10;17.70;;;;;;;11.62;60.38;99357.05;232868;1220;138944;-59
2022/04/15 22:24:27;;;;;;;22.60;17.00;;;;;;;11.62;60.89;99359.22;232703;1220;138834;-58
2022/04/15 22:29:31;;;;;;;22.80;17.40;;;;;;;11.58;61.18;99361.75;232790;1220;139373;-56
2022/04/15 22:34:35;;;;;;;20.70;14.90;;;;;;;11.59;60.93;99360.11;232946;1220;140453;-57
2022/04/15 22:39:38;;;;;;;18.80;13.70;;;;;;;11.65;61.09;99360.79;232782;1220;139591;-57
2022/04/15 22:44:44;;;;;;;17.80;13.20;;;;;;;11.68;61.13;99361.17;232795;1220;139689;-56
2022/04/15 22:49:47;;;;;;;16.50;12.90;;;;;;;11.67;60.86;99362.08;232843;1220;139675;-60
2022/04/15 23:00:13;;;;;;;17.30;13.10;;;;;;;11.58;60.57;99366.54;232972;1220;139317;-56
2022/04/15 23:05:16;;;;;;;15.70;12.00;;;;;;;11.50;60.55;99365.82;232948;1218;138976;-59
2022/04/15 23:10:20;;;;;;;15.10;12.10;;;;;;;11.42;60.82;99364.71;232923;1220;139718;-61
2022/04/15 23:15:23;;;;;;;15.30;11.80;;;;;;;11.34;60.95;99366.19;232824;1220;139101;-60
2022/04/15 23:20:27;;;;;;;12.70;10.80;;;;;;;11.28;60.48;99368.74;232894;1220;139374;-61
2022/04/15 23:25:32;;;;;;;15.50;10.60;;;;;;;11.20;61.02;99370.80;232826;1220;139179;-58
2022/04/15 23:30:35;;;;;;;14.10;11.20;;;;;;;11.20;60.80;99366.22;232916;1220;141345;-58
2022/04/15 23:35:39;;;;;;;15.00;11.40;;;;;;;11.21;60.87;99368.10;232827;1219;139461;-60
2022/04/15 23:40:42;;;;;;;14.40;11.00;;;;;;;11.20;60.87;99369.55;232942;1220;139251;-61